Time;durP1;ratioP1;P1;durP2;ratioP2;P2;SDS_P1;SDS_P2;PMS_P1;PMS_P2;Temp;Humidity;BMP_temperature;BMP_pressure;BME280_temperature;BME280_humidity;BME280_pressure;Samples;Min_cycle;Max_cycle;Signal;HPM_P1;HPM_P2
2022/05/28 00:02:06;;;;;;;10.52;3.47;;;13.10;72.90;;;;;;5040248;28;20025;-60
2022/05/28 00:04:33;;;;;;;10.57;3.78;;;13.10;73.10;;;;;;5022529;28;20050;-60
2022/05/28 00:07:02;;;;;;;9.77;3.33;;;13.00;73.30;;;;;;5040437;28;20543;-60
2022/05/28 00:09:28;;;;;;;11.05;3.58;;;13.00;72.70;;;;;;5040039;28;20026;-60
2022/05/28 00:11:53;;;;;;;10.77;3.35;;;13.00;73.10;;;;;;5040477;28;20025;-60
2022/05/28 00:14:19;;;;;;;12.60;3.95;;;13.00;72.50;;;;;;5039932;28;20476;-60
2022/05/28 00:16:46;;;;;;;11.27;3.13;;;12.90;71.90;;;;;;5040208;28;20466;-60
2022/05/28 00:19:12;;;;;;;14.27;4.18;;;12.90;72.20;;;;;;5039854;28;20029;-60
2022/05/28 00:21:37;;;;;;;7.57;3.38;;;12.90;72.90;;;;;;5040316;28;20028;-60
2022/05/28 00:24:04;;;;;;;10.38;3.47;;;12.90;73.50;;;;;;5053483;28;20131;-60
2022/05/28 00:26:29;;;;;;;11.63;3.20;;;12.80;74.00;;;;;;5059982;28;20104;-60
2022/05/28 00:28:55;;;;;;;12.38;3.67;;;12.80;73.30;;;;;;5059617;28;20061;-60
2022/05/28 00:31:21;;;;;;;7.57;3.60;;;12.80;73.40;;;;;;5059645;28;20112;-60
2022/05/28 00:33:47;;;;;;;8.15;2.97;;;12.80;72.40;;;;;;5058640;28;20036;-60
2022/05/28 00:36:14;;;;;;;13.07;4.10;;;12.70;73.50;;;;;;5053550;28;20026;-60
2022/05/28 00:38:42;;;;;;;13.68;3.78;;;12.70;73.70;;;;;;5037863;28;20049;-60
2022/05/28 00:41:09;;;;;;;10.90;3.22;;;12.60;72.90;;;;;;5039742;28;20488;-60
2022/05/28 00:43:36;;;;;;;11.15;3.65;;;12.60;73.60;;;;;;5039358;28;20112;-60
2022/05/28 00:46:06;;;;;;;9.80;3.72;;;12.60;73.30;;;;;;5039231;28;20029;-60
2022/05/28 00:48:36;;;;;;;14.57;4.82;;;12.60;74.10;;;;;;5039199;28;20026;-60
2022/05/28 00:51:06;;;;;;;11.35;3.92;;;12.60;72.90;;;;;;5039499;28;20029;-60
2022/05/28 00:53:34;;;;;;;12.70;3.72;;;12.50;74.10;;;;;;5038697;28;20060;-60
2022/05/28 00:56:01;;;;;;;10.75;3.58;;;12.50;74.00;;;;;;5038923;28;20045;-60
2022/05/28 00:58:27;;;;;;;10.68;3.42;;;12.40;73.10;;;;;;5038790;28;20442;-60
2022/05/28 01:00:53;;;;;;;12.48;3.92;;;12.40;74.00;;;;;;5039340;28;20021;-60
2022/05/28 01:03:37;;;;;;;10.00;3.60;;;12.50;73.80;;;;;;5038969;28;20026;-60
2022/05/28 01:06:14;;;;;;;10.75;3.53;;;12.40;74.40;;;;;;5038442;28;20511;-60
2022/05/28 01:09:07;;;;;;;11.40;3.72;;;12.40;74.00;;;;;;5039033;28;20017;-60
2022/05/28 01:11:45;;;;;;;10.85;3.40;;;12.40;73.40;;;;;;5038983;28;20430;-60
2022/05/28 01:14:16;;;;;;;9.73;3.40;;;12.40;73.80;;;;;;5039288;28;20025;-59
2022/05/28 01:16:50;;;;;;;9.90;3.30;;;12.30;74.20;;;;;;5037797;28;20046;-60
2022/05/28 01:19:34;;;;;;;11.75;3.78;;;12.30;75.40;;;;;;5038705;28;20022;-60
2022/05/28 01:21:59;;;;;;;12.52;3.72;;;12.20;74.30;;;;;;5038855;28;20375;-60
2022/05/28 01:24:47;;;;;;;10.95;3.63;;;12.20;75.00;;;;;;5045886;28;20143;-60
2022/05/28 01:27:18;;;;;;;11.68;3.33;;;12.20;74.70;;;;;;5057706;28;20032;-60
2022/05/28 01:29:51;;;;;;;12.95;3.65;;;12.20;75.20;;;;;;5058487;28;20037;-60
2022/05/28 01:32:18;;;;;;;12.23;4.28;;;12.10;76.00;;;;;;5058679;28;20017;-60
2022/05/28 01:34:45;;;;;;;12.32;3.67;;;12.10;74.30;;;;;;5057423;28;20079;-60
2022/05/28 01:37:12;;;;;;;9.50;3.78;;;12.10;75.10;;;;;;5058422;28;20435;-60
2022/05/28 01:39:46;;;;;;;13.77;3.45;;;12.10;75.20;;;;;;5058781;28;20029;-60
2022/05/28 01:42:13;;;;;;;11.43;4.15;;;12.00;74.70;;;;;;5056192;28;20056;-60
2022/05/28 01:44:42;;;;;;;11.88;3.83;;;12.00;73.90;;;;;;5038294;28;20109;-60
2022/05/28 01:47:10;;;;;;;14.13;3.80;;;12.00;74.80;;;;;;5038411;28;20109;-60
2022/05/28 01:49:36;;;;;;;10.30;3.60;;;12.00;75.90;;;;;;5038158;28;20029;-60
2022/05/28 01:52:02;;;;;;;9.88;3.30;;;12.00;75.10;;;;;;5038226;28;20037;-60
2022/05/28 01:54:35;;;;;;;10.32;3.58;;;11.90;75.30;;;;;;5038144;28;20021;-62
2022/05/28 01:57:02;;;;;;;12.40;4.15;;;11.90;76.20;;;;;;5037764;28;20176;-59
2022/05/28 01:59:33;;;;;;;13.15;3.67;;;11.90;75.60;;;;;;5037655;28;20073;-60
2022/05/28 02:02:00;;;;;;;14.50;4.20;;;11.80;76.20;;;;;;5037978;28;20030;-60
2022/05/28 02:04:28;;;;;;;13.65;3.95;;;11.80;76.50;;;;;;5037955;28;20025;-59
2022/05/28 02:06:54;;;;;;;11.40;3.78;;;11.80;76.20;;;;;;5038213;28;20075;-60
2022/05/28 02:09:23;;;;;;;10.35;3.22;;;11.80;77.00;;;;;;5036464;28;20037;-60
2022/05/28 02:12:09;;;;;;;9.23;3.35;;;11.70;77.00;;;;;;5038093;28;20025;-59
2022/05/28 02:14:38;;;;;;;14.57;4.22;;;11.80;76.10;;;;;;5037936;28;20032;-60
2022/05/28 02:17:17;;;;;;;10.07;4.72;;;11.80;76.60;;;;;;5037646;28;20108;-59
2022/05/28 02:19:52;;;;;;;10.60;3.40;;;11.70;76.70;;;;;;5037714;28;20033;-60
2022/05/28 02:22:40;;;;;;;13.98;4.20;;;11.70;77.00;;;;;;5037758;28;20034;-59
2022/05/28 02:25:22;;;;;;;11.48;3.58;;;11.70;76.30;;;;;;5037846;28;20105;-60
2022/05/28 02:27:49;;;;;;;13.95;4.00;;;11.70;76.40;;;;;;5037805;28;20022;-59
2022/05/28 02:30:15;;;;;;;13.55;3.80;;;11.70;75.90;;;;;;5037805;28;20029;-59
2022/05/28 02:32:41;;;;;;;15.82;4.32;;;11.60;75.90;;;;;;5037717;28;20026;-59
2022/05/28 02:35:09;;;;;;;12.82;3.60;;;11.60;76.90;;;;;;5037497;28;20096;-59
2022/05/28 02:37:35;;;;;;;8.88;3.55;;;11.60;76.10;;;;;;5037711;28;20028;-60
2022/05/28 02:40:01;;;;;;;9.07;3.42;;;11.60;76.80;;;;;;5037608;28;20057;-60
2022/05/28 02:42:27;;;;;;;9.55;3.60;;;11.50;77.10;;;;;;5037161;28;20029;-60
2022/05/28 02:44:53;;;;;;;10.95;3.97;;;11.50;77.50;;;;;;5037546;28;20427;-60
2022/05/28 02:47:18;;;;;;;10.05;3.50;;;11.50;76.50;;;;;;5037259;28;20048;-59
2022/05/28 02:49:44;;;;;;;12.43;4.53;;;11.50;76.30;;;;;;5037528;28;20033;-59
2022/05/28 02:52:10;;;;;;;10.32;3.17;;;11.50;76.90;;;;;;5036350;28;20117;-60
2022/05/28 02:54:36;;;;;;;10.68;3.40;;;11.50;77.00;;;;;;5037360;28;20021;-60
2022/05/28 02:57:02;;;;;;;9.27;3.03;;;11.50;77.50;;;;;;5035326;28;20595;-60
2022/05/28 02:59:28;;;;;;;12.07;3.75;;;11.50;76.60;;;;;;5036593;28;20655;-59
2022/05/28 03:01:54;;;;;;;8.25;3.90;;;11.50;76.60;;;;;;5036800;28;20076;-60
2022/05/28 03:04:20;;;;;;;13.00;3.75;;;11.50;77.20;;;;;;5035694;28;20032;-59
2022/05/28 03:06:46;;;;;;;12.05;3.88;;;11.40;76.10;;;;;;5036822;28;20025;-60
2022/05/28 03:09:13;;;;;;;14.68;4.57;;;11.40;76.40;;;;;;5037431;28;20504;-60
2022/05/28 03:11:39;;;;;;;11.63;3.72;;;11.40;77.20;;;;;;5041067;28;20035;-59
2022/05/28 03:14:05;;;;;;;10.25;3.88;;;11.40;76.40;;;;;;5041069;28;20537;-59
2022/05/28 03:16:31;;;;;;;11.82;3.85;;;11.40;75.90;;;;;;5041599;28;20030;-60
2022/05/28 03:18:57;;;;;;;10.63;3.88;;;11.30;77.50;;;;;;5041033;28;20022;-59
2022/05/28 03:21:23;;;;;;;9.52;3.15;;;11.30;76.40;;;;;;5041137;28;20044;-59
2022/05/28 03:23:49;;;;;;;12.15;4.25;;;11.30;76.60;;;;;;5040967;28;20136;-60
2022/05/28 03:26:19;;;;;;;13.77;4.40;;;11.30;75.70;;;;;;5040237;28;20036;-60
2022/05/28 03:28:45;;;;;;;11.90;3.90;;;11.30;76.60;;;;;;5040011;28;20396;-59
2022/05/28 03:31:11;;;;;;;14.38;3.88;;;11.30;76.90;;;;;;5040937;28;20038;-59
2022/05/28 03:33:37;;;;;;;14.55;4.18;;;11.30;77.10;;;;;;5040103;28;20017;-60
2022/05/28 03:36:04;;;;;;;13.32;3.97;;;11.30;78.20;;;;;;5038946;28;20022;-60
2022/05/28 03:38:30;;;;;;;11.10;3.63;;;11.20;76.40;;;;;;5038465;28;20021;-60
2022/05/28 03:40:58;;;;;;;10.68;3.72;;;11.20;77.40;;;;;;5040568;28;20092;-59
2022/05/28 03:43:25;;;;;;;9.40;3.78;;;11.20;76.30;;;;;;5039706;28;20034;-59
2022/05/28 03:45:51;;;;;;;10.77;3.30;;;11.20;77.10;;;;;;5040587;28;20026;-60
2022/05/28 03:48:17;;;;;;;8.55;3.40;;;11.20;77.00;;;;;;5040497;28;20026;-59
2022/05/28 03:50:43;;;;;;;9.80;3.78;;;11.20;76.90;;;;;;5040384;28;20040;-59
2022/05/28 03:53:09;;;;;;;11.02;3.83;;;11.10;76.70;;;;;;5040424;28;20022;-60
2022/05/28 03:55:37;;;;;;;11.65;3.38;;;11.10;76.90;;;;;;5040340;28;20045;-60
2022/05/28 03:58:03;;;;;;;9.77;3.90;;;11.10;77.20;;;;;;5040251;28;20024;-59
2022/05/28 04:00:29;;;;;;;11.85;3.67;;;11.10;77.00;;;;;;5040519;28;20109;-59
2022/05/28 04:02:55;;;;;;;11.65;3.80;;;11.00;77.20;;;;;;5040410;28;20022;-59
2022/05/28 04:05:22;;;;;;;11.88;3.70;;;11.00;76.80;;;;;;5040453;28;20030;-59
2022/05/28 04:07:48;;;;;;;11.05;3.40;;;11.00;77.40;;;;;;5042682;28;20029;-59
2022/05/28 04:10:14;;;;;;;10.32;4.13;;;10.90;78.10;;;;;;5052410;28;20026;-59
2022/05/28 04:12:40;;;;;;;10.57;3.05;;;10.90;77.80;;;;;;5058703;28;20025;-59
2022/05/28 04:15:07;;;;;;;9.90;3.72;;;11.00;77.20;;;;;;5051628;28;20030;-59
2022/05/28 04:17:33;;;;;;;9.93;3.47;;;10.90;78.50;;;;;;5039846;28;20049;-60
2022/05/28 04:19:59;;;;;;;11.05;3.47;;;10.90;78.40;;;;;;5040043;28;20552;-59
2022/05/28 04:22:25;;;;;;;12.65;3.45;;;10.90;77.70;;;;;;5039241;28;20022;-59
2022/05/28 04:24:51;;;;;;;13.95;3.80;;;10.90;77.70;;;;;;5039660;28;20514;-59
2022/05/28 04:27:17;;;;;;;12.60;3.58;;;10.90;78.20;;;;;;5040021;28;20457;-59
2022/05/28 04:29:43;;;;;;;9.30;3.50;;;10.90;77.80;;;;;;5039738;28;20037;-59
2022/05/28 04:32:09;;;;;;;12.85;4.03;;;10.90;78.10;;;;;;5039709;28;20075;-59
2022/05/28 04:34:34;;;;;;;10.05;3.47;;;10.90;77.70;;;;;;5039376;28;20029;-59
2022/05/28 04:37:01;;;;;;;11.93;4.13;;;10.90;77.80;;;;;;5039038;28;20099;-60
2022/05/28 04:39:27;;;;;;;14.40;4.07;;;10.90;77.30;;;;;;5037467;28;20030;-59
2022/05/28 04:41:52;;;;;;;10.00;3.28;;;10.90;78.60;;;;;;5037669;28;20021;-59
2022/05/28 04:44:18;;;;;;;13.32;3.83;;;10.90;78.30;;;;;;5037314;28;20025;-59
2022/05/28 04:46:44;;;;;;;10.35;3.17;;;10.90;78.10;;;;;;5037421;28;20022;-59
2022/05/28 04:49:09;;;;;;;10.48;3.97;;;10.90;77.60;;;;;;5037305;28;20037;-59
2022/05/28 04:51:35;;;;;;;11.38;3.67;;;10.90;78.80;;;;;;5037230;28;20025;-59
2022/05/28 04:54:01;;;;;;;11.77;3.67;;;10.80;79.10;;;;;;5038036;28;20037;-59
2022/05/28 04:56:27;;;;;;;11.15;3.42;;;10.90;78.40;;;;;;5038444;28;20040;-59
2022/05/28 04:58:53;;;;;;;8.75;3.10;;;10.90;78.20;;;;;;5037076;28;20492;-59
2022/05/28 05:01:21;;;;;;;10.35;3.40;;;10.90;78.90;;;;;;5036776;28;20056;-59
2022/05/28 05:03:46;;;;;;;11.98;4.10;;;10.90;78.30;;;;;;5037772;28;20030;-60
2022/05/28 05:06:12;;;;;;;10.43;3.95;;;10.90;77.70;;;;;;5049851;28;20057;-59
2022/05/28 05:08:38;;;;;;;10.73;3.08;;;10.90;78.40;;;;;;5042096;28;20033;-59
2022/05/28 05:11:04;;;;;;;11.30;3.72;;;10.90;78.60;;;;;;5045235;28;20112;-59
2022/05/28 05:13:30;;;;;;;12.38;3.83;;;11.00;78.20;;;;;;5053865;28;20029;-59
2022/05/28 05:15:56;;;;;;;8.65;2.92;;;10.90;78.70;;;;;;5041930;28;20022;-59
2022/05/28 05:18:22;;;;;;;10.45;3.50;;;11.00;78.00;;;;;;5051656;28;20040;-59
2022/05/28 05:20:48;;;;;;;8.70;3.50;;;11.00;79.10;;;;;;5047536;28;20022;-59
2022/05/28 05:23:14;;;;;;;10.25;3.35;;;11.00;79.40;;;;;;5038477;28;20478;-59
2022/05/28 05:25:39;;;;;;;12.18;3.65;;;11.10;78.90;;;;;;5037937;28;20025;-60
2022/05/28 05:28:06;;;;;;;12.40;3.95;;;11.10;79.30;;;;;;5038687;28;20025;-59
2022/05/28 05:30:32;;;;;;;11.95;4.25;;;11.10;79.90;;;;;;5038335;28;20047;-59
2022/05/28 05:32:58;;;;;;;11.40;4.30;;;11.10;80.00;;;;;;5037923;28;20076;-59
2022/05/28 05:35:23;;;;;;;15.07;4.50;;;11.20;79.50;;;;;;5038403;28;20052;-59
2022/05/28 05:37:49;;;;;;;11.38;3.58;;;11.20;80.50;;;;;;5038466;28;20026;-59
2022/05/28 05:40:15;;;;;;;10.68;3.83;;;11.30;79.80;;;;;;5038365;28;20037;-59
2022/05/28 05:42:41;;;;;;;15.57;4.07;;;11.30;80.40;;;;;;5038217;28;20080;-60
2022/05/28 05:45:08;;;;;;;16.45;4.50;;;11.30;80.60;;;;;;5038373;28;20025;-60
2022/05/28 05:47:34;;;;;;;13.80;4.22;;;11.40;81.30;;;;;;5038098;28;20029;-60
2022/05/28 05:49:59;;;;;;;10.18;3.30;;;11.40;80.30;;;;;;5038468;28;20018;-59
2022/05/28 05:52:26;;;;;;;13.68;4.45;;;11.50;80.80;;;;;;5038166;28;20115;-59
2022/05/28 05:54:52;;;;;;;10.50;4.38;;;11.50;80.80;;;;;;5038094;28;20505;-59
2022/05/28 05:57:18;;;;;;;12.10;3.78;;;11.60;80.20;;;;;;5037428;28;20073;-60
2022/05/28 05:59:44;;;;;;;11.43;3.83;;;11.60;79.80;;;;;;5037599;28;20026;-59
2022/05/28 06:02:11;;;;;;;12.85;4.07;;;11.70;80.70;;;;;;5037708;28;20021;-60
2022/05/28 06:04:37;;;;;;;9.88;3.80;;;11.80;80.60;;;;;;5043703;28;20489;-59
2022/05/28 06:07:07;;;;;;;13.52;4.28;;;11.80;79.80;;;;;;5046282;28;20033;-59
2022/05/28 06:09:32;;;;;;;14.77;3.78;;;11.80;79.90;;;;;;5038040;28;20074;-59
2022/05/28 06:11:58;;;;;;;14.10;3.97;;;11.90;81.50;;;;;;5052388;28;20107;-59
2022/05/28 06:14:24;;;;;;;14.45;4.43;;;12.00;81.30;;;;;;5057729;28;20024;-59
2022/05/28 06:16:50;;;;;;;10.70;3.38;;;12.00;79.80;;;;;;5049160;28;20032;-60
2022/05/28 06:19:16;;;;;;;15.38;4.60;;;12.10;81.00;;;;;;5038087;28;20026;-59
2022/05/28 06:21:42;;;;;;;12.57;4.07;;;12.20;80.90;;;;;;5037509;28;20108;-59
2022/05/28 06:24:08;;;;;;;9.73;3.53;;;12.20;80.40;;;;;;5037597;28;20060;-59
2022/05/28 06:26:34;;;;;;;13.20;3.78;;;12.30;80.70;;;;;;5038058;28;20021;-59
2022/05/28 06:29:00;;;;;;;13.35;4.10;;;12.30;80.40;;;;;;5037567;28;20018;-60
2022/05/28 06:31:26;;;;;;;9.25;3.58;;;12.40;80.30;;;;;;5040115;28;20089;-60
2022/05/28 06:33:52;;;;;;;12.75;4.85;;;12.40;79.60;;;;;;5045190;28;20025;-59
2022/05/28 06:36:17;;;;;;;10.40;3.90;;;12.50;79.40;;;;;;5049477;28;20207;-60
2022/05/28 06:38:45;;;;;;;11.88;3.60;;;12.60;80.20;;;;;;5041193;28;20018;-60
2022/05/28 06:41:12;;;;;;;14.43;4.00;;;12.60;79.30;;;;;;5040356;28;20029;-59
2022/05/28 06:43:38;;;;;;;13.52;3.67;;;12.70;78.80;;;;;;5042237;28;20034;-60
2022/05/28 06:46:06;;;;;;;16.00;3.75;;;12.70;78.70;;;;;;5046030;28;20029;-59
2022/05/28 06:48:32;;;;;;;10.10;3.70;;;12.80;79.20;;;;;;5048181;28;20021;-59
2022/05/28 06:51:04;;;;;;;13.40;4.07;;;12.90;79.10;;;;;;5046796;28;20055;-59
2022/05/28 06:53:40;;;;;;;14.30;4.50;;;12.90;78.80;;;;;;5050450;28;20036;-59
2022/05/28 06:56:07;;;;;;;12.38;3.95;;;13.00;78.50;;;;;;5051331;28;20127;-59
2022/05/28 06:58:34;;;;;;;10.02;3.65;;;13.10;78.70;;;;;;5036900;28;20021;-59
2022/05/28 07:01:01;;;;;;;12.38;3.88;;;13.10;78.50;;;;;;5041430;28;20100;-60
2022/05/28 07:03:29;;;;;;;13.30;4.20;;;13.20;78.50;;;;;;5037770;28;20029;-60
2022/05/28 07:05:55;;;;;;;11.75;4.38;;;13.30;77.90;;;;;;5037489;28;21697;-60
2022/05/28 07:08:22;;;;;;;11.02;3.85;;;13.40;77.50;;;;;;5039433;28;20143;-60
2022/05/28 07:10:52;;;;;;;12.63;4.00;;;13.40;77.30;;;;;;5036619;28;20044;-60
2022/05/28 07:13:19;;;;;;;11.15;4.35;;;13.50;77.20;;;;;;5038153;28;20508;-60
2022/05/28 07:15:45;;;;;;;13.73;3.88;;;13.50;77.10;;;;;;5036216;28;20099;-60
2022/05/28 07:18:12;;;;;;;12.57;4.32;;;13.60;76.30;;;;;;5044679;28;20099;-59
2022/05/28 07:20:38;;;;;;;12.75;3.78;;;13.60;76.50;;;;;;5047316;28;20030;-60
2022/05/28 07:23:25;;;;;;;14.15;3.92;;;13.70;76.00;;;;;;5043263;28;20432;-59
2022/05/28 07:25:58;;;;;;;13.60;3.80;;;13.80;75.90;;;;;;5042147;28;20064;-60
2022/05/28 07:28:30;;;;;;;12.75;4.00;;;13.80;75.90;;;;;;5047825;28;20025;-60
2022/05/28 07:31:08;;;;;;;11.90;3.50;;;13.90;75.30;;;;;;5040749;28;20025;-60
2022/05/28 07:33:42;;;;;;;11.85;3.70;;;14.00;75.70;;;;;;5042710;28;20021;-60
2022/05/28 07:36:11;;;;;;;10.53;4.67;;;14.10;75.10;;;;;;5043125;28;20100;-60
2022/05/28 07:38:37;;;;;;;11.52;3.70;;;14.10;75.50;;;;;;5040588;28;20033;-60
2022/05/28 07:41:09;;;;;;;10.20;3.85;;;14.20;75.60;;;;;;5044068;28;20496;-60
2022/05/28 07:43:36;;;;;;;11.32;3.42;;;14.40;75.60;;;;;;5044315;28;20044;-60
2022/05/28 07:46:03;;;;;;;11.40;3.20;;;14.40;75.40;;;;;;5035565;28;20024;-60
2022/05/28 07:48:29;;;;;;;13.25;3.55;;;14.50;75.60;;;;;;5041004;28;20079;-59
2022/05/28 07:50:55;;;;;;;12.85;4.07;;;14.60;75.50;;;;;;5045845;28;20025;-60
2022/05/28 07:53:21;;;;;;;12.13;3.75;;;14.70;75.10;;;;;;5039705;28;20036;-60
2022/05/28 07:55:46;;;;;;;11.35;3.75;;;14.80;74.40;;;;;;5039619;28;20040;-60
2022/05/28 07:58:16;;;;;;;12.75;4.50;;;14.90;74.10;;;;;;5043753;28;20213;-60
2022/05/28 08:00:45;;;;;;;13.50;3.85;;;15.00;75.10;;;;;;5040804;28;20025;-60
2022/05/28 08:03:12;;;;;;;10.63;4.28;;;15.10;74.50;;;;;;5042792;28;20112;-60
2022/05/28 08:05:41;;;;;;;13.60;3.40;;;15.10;74.10;;;;;;5045943;28;20108;-60
2022/05/28 08:08:07;;;;;;;12.73;4.07;;;15.20;74.00;;;;;;5038337;28;20049;-59
2022/05/28 08:10:33;;;;;;;13.40;3.92;;;15.30;74.20;;;;;;5041623;28;20039;-60
2022/05/28 08:13:07;;;;;;;11.00;3.63;;;15.40;72.20;;;;;;5049725;28;20021;-60
2022/05/28 08:15:35;;;;;;;11.52;3.63;;;15.40;73.30;;;;;;5041120;28;20057;-59
2022/05/28 08:18:01;;;;;;;8.93;3.58;;;15.50;71.50;;;;;;5051759;28;20084;-60
2022/05/28 08:23:12;;;;;;;12.93;3.70;;;15.70;72.20;;;;;;5056733;28;20126;-59
2022/05/28 08:25:39;;;;;;;10.20;3.85;;;15.70;71.40;;;;;;5057914;28;20041;-60
2022/05/28 08:28:07;;;;;;;12.65;3.40;;;15.80;72.20;;;;;;5056960;28;20025;-60
2022/05/28 08:30:33;;;;;;;12.40;3.65;;;15.90;70.60;;;;;;5055344;28;20017;-60
2022/05/28 08:32:58;;;;;;;8.68;2.92;;;16.00;71.10;;;;;;5055473;28;20027;-60
2022/05/28 08:35:24;;;;;;;10.57;3.22;;;16.00;70.40;;;;;;5055137;28;20025;-60
2022/05/28 08:37:50;;;;;;;13.10;3.55;;;16.10;70.80;;;;;;5054330;28;20025;-60
2022/05/28 08:40:16;;;;;;;12.30;3.83;;;16.10;71.30;;;;;;5055724;28;20033;-60
2022/05/28 08:42:42;;;;;;;10.73;3.13;;;16.30;70.00;;;;;;5056594;28;20685;-60
2022/05/28 08:45:10;;;;;;;10.05;3.33;;;16.30;70.00;;;;;;5057113;28;20082;-60
2022/05/28 08:47:40;;;;;;;10.73;3.28;;;16.40;70.20;;;;;;5058627;28;20017;-60
2022/05/28 08:50:07;;;;;;;8.55;3.58;;;16.50;68.30;;;;;;5058706;28;20078;-60
2022/05/28 08:52:55;;;;;;;11.93;3.47;;;16.60;68.00;;;;;;5059672;28;20024;-60
2022/05/28 08:55:25;;;;;;;10.13;3.47;;;16.60;69.90;;;;;;5059115;28;20029;-60
2022/05/28 08:58:01;;;;;;;11.35;3.20;;;16.70;68.80;;;;;;5059351;28;20033;-60
2022/05/28 09:00:52;;;;;;;8.30;2.90;;;16.80;69.60;;;;;;5059120;28;20025;-60
2022/05/28 09:03:28;;;;;;;12.93;3.42;;;16.90;69.50;;;;;;5059111;28;20021;-60
2022/05/28 09:06:05;;;;;;;9.82;3.25;;;17.00;69.30;;;;;;5059250;28;20028;-60
2022/05/28 09:08:49;;;;;;;11.02;3.33;;;17.10;68.50;;;;;;5059128;28;20106;-59
2022/05/28 09:11:21;;;;;;;8.75;3.00;;;17.10;68.60;;;;;;5058910;28;20036;-60
2022/05/28 09:13:50;;;;;;;11.60;3.30;;;17.30;67.20;;;;;;5059077;28;20013;-60
2022/05/28 09:16:27;;;;;;;13.63;3.67;;;17.30;68.20;;;;;;5058913;28;20350;-60
2022/05/28 09:18:55;;;;;;;11.35;3.00;;;17.40;66.70;;;;;;5059021;28;20025;-60
2022/05/28 09:21:21;;;;;;;12.25;3.92;;;17.50;66.60;;;;;;5058792;28;20025;-60
2022/05/28 09:24:16;;;;;;;10.77;3.08;;;17.50;68.10;;;;;;5058727;28;20028;-60
2022/05/28 09:27:16;;;;;;;10.27;3.53;;;17.70;67.80;;;;;;5058659;28;20036;-60
2022/05/28 09:30:02;;;;;;;13.88;3.50;;;17.80;65.10;;;;;;5057566;28;20053;-60
2022/05/28 09:32:46;;;;;;;9.20;3.67;;;17.90;65.60;;;;;;5058149;28;20028;-60
2022/05/28 09:35:41;;;;;;;11.25;2.97;;;18.00;64.30;;;;;;5058288;28;20060;-60
2022/05/28 09:38:15;;;;;;;;;;;18.10;64.50;;;;;;5059235;28;20076;-60
2022/05/28 09:40:52;;;;;;;11.05;3.45;;;18.30;64.40;;;;;;5057908;28;19905;-60
2022/05/28 09:43:39;;;;;;;8.77;3.00;;;18.40;63.80;;;;;;5055245;28;20045;-60
2022/05/28 09:46:23;;;;;;;10.65;3.33;;;18.70;63.60;;;;;;5036958;28;20404;-60
2022/05/28 09:49:05;;;;;;;8.93;2.97;;;19.00;63.80;;;;;;5044985;28;20112;-60
2022/05/28 09:51:34;;;;;;;8.75;3.28;;;19.30;61.90;;;;;;5043002;28;20068;-60
2022/05/28 09:54:20;;;;;;;10.48;3.10;;;19.60;62.90;;;;;;5047382;28;20484;-60
2022/05/28 09:57:10;;;;;;;9.25;2.72;;;19.80;61.80;;;;;;5037721;28;20046;-60
2022/05/28 10:00:11;;;;;;;9.43;3.15;;;20.10;60.60;;;;;;5036200;28;20021;-60
2022/05/28 10:04:28;;;;;;;9.93;2.90;;;20.60;63.50;;;;;;5062687;28;20044;-60
2022/05/28 10:05:41;;;;;;;8.63;3.03;;;21.00;61.60;;;;;;5057662;28;20052;-60
2022/05/28 10:08:12;;;;;;;10.00;2.70;;;21.40;61.40;;;;;;5050395;28;20481;-60
2022/05/28 10:10:39;;;;;;;10.73;3.42;;;21.60;58.70;;;;;;5057386;28;20071;-60
2022/05/28 10:13:17;;;;;;;13.13;3.10;;;22.10;60.60;;;;;;5057406;28;20029;-60
2022/05/28 10:16:04;;;;;;;10.57;3.22;;;22.40;60.80;;;;;;5055779;28;20109;-60
2022/05/28 10:18:36;;;;;;;12.45;2.70;;;22.80;59.90;;;;;;5037203;28;20401;-60
2022/05/28 10:21:09;;;;;;;10.02;2.83;;;23.40;60.60;;;;;;5037321;28;20025;-60
2022/05/28 10:23:37;;;;;;;8.95;2.85;;;23.80;61.30;;;;;;5040592;28;20041;-61
2022/05/28 10:26:03;;;;;;;8.82;2.60;;;24.10;58.30;;;;;;5051826;28;20028;-61
2022/05/28 10:28:33;;;;;;;6.72;2.90;;;24.40;54.20;;;;;;5053072;28;20565;-61
2022/05/28 10:30:59;;;;;;;8.40;2.70;;;24.70;51.10;;;;;;5035201;28;20110;-60
2022/05/28 10:33:28;;;;;;;10.23;2.70;;;25.10;56.30;;;;;;5035153;28;20026;-61
2022/05/28 10:36:09;;;;;;;14.43;3.30;;;25.50;54.20;;;;;;5033396;28;20503;-61
2022/05/28 10:38:36;;;;;;;9.75;3.00;;;25.90;53.00;;;;;;5034115;28;20028;-61
2022/05/28 10:41:26;;;;;;;7.90;2.80;;;26.20;56.30;;;;;;5035713;28;20025;-61
2022/05/28 10:43:52;;;;;;;9.20;3.10;;;26.50;51.10;;;;;;5035862;28;20037;-61
2022/05/28 10:46:32;;;;;;;7.97;2.83;;;26.90;46.70;;;;;;5034536;28;20024;-61
2022/05/28 10:49:22;;;;;;;9.85;3.10;;;27.30;55.70;;;;;;5033489;28;20084;-61
2022/05/28 10:52:12;;;;;;;8.77;2.45;;;27.60;50.10;;;;;;5034684;28;20053;-61
2022/05/28 10:54:49;;;;;;;9.50;2.90;;;27.80;50.10;;;;;;5034794;28;20036;-61
2022/05/28 10:57:24;;;;;;;9.23;3.15;;;28.10;48.80;;;;;;5034911;28;20041;-61
2022/05/28 11:00:07;;;;;;;7.78;2.65;;;28.20;45.30;;;;;;5036088;28;20030;-61
2022/05/28 11:03:04;;;;;;;9.55;2.97;;;28.10;47.50;;;;;;5037088;28;20442;-61
2022/05/28 11:06:14;;;;;;;9.10;2.83;;;28.20;42.20;;;;;;5037236;28;20116;-61
2022/05/28 11:09:06;;;;;;;7.32;2.40;;;28.50;49.50;;;;;;5037079;28;20347;-61
2022/05/28 11:11:37;;;;;;;9.27;3.67;;;29.00;47.10;;;;;;5037096;28;20421;-61
2022/05/28 11:14:31;;;;;;;9.10;2.90;;;29.20;42.40;;;;;;5037245;28;20024;-61
2022/05/28 11:17:39;;;;;;;7.95;2.88;;;29.30;49.10;;;;;;5037515;28;20159;-61
2022/05/28 11:20:25;;;;;;;9.05;2.63;;;29.30;38.50;;;;;;5036614;28;20470;-61
2022/05/28 11:23:16;;;;;;;7.00;2.35;;;29.40;44.40;;;;;;5037293;28;20025;-61
2022/05/28 11:26:07;;;;;;;6.60;2.40;;;29.50;40.40;;;;;;5037051;28;20113;-61
2022/05/28 11:29:11;;;;;;;8.55;2.60;;;29.90;40.20;;;;;;5037506;28;20476;-61
2022/05/28 11:31:53;;;;;;;7.60;2.42;;;30.30;43.40;;;;;;5035994;28;20133;-61
2022/05/28 11:34:32;;;;;;;11.48;2.88;;;30.40;40.10;;;;;;5039354;28;20044;-61
2022/05/28 11:37:12;;;;;;;7.35;2.92;;;30.50;41.60;;;;;;5040222;28;20034;-61
2022/05/28 11:39:40;;;;;;;6.97;2.78;;;30.30;41.10;;;;;;5040924;28;20033;-61
2022/05/28 11:42:16;;;;;;;7.85;2.30;;;30.40;38.80;;;;;;5040967;28;20104;-61
2022/05/28 11:44:49;;;;;;;6.65;2.45;;;30.60;43.00;;;;;;5040998;28;20429;-61
2022/05/28 11:47:27;;;;;;;;;;;30.90;41.50;;;;;;5041630;28;20108;-61
2022/05/28 11:52:46;;;;;;;5.30;2.40;;;31.50;39.80;;;;;;5040743;28;20057;-61
2022/05/28 11:55:23;;;;;;;6.63;2.55;;;31.60;42.20;;;;;;5040611;28;20075;-62
2022/05/28 11:58:00;;;;;;;7.32;2.50;;;31.80;42.50;;;;;;5040713;28;20022;-62
2022/05/28 12:00:30;;;;;;;5.15;2.38;;;31.90;40.90;;;;;;5040220;28;20021;-61
2022/05/28 12:03:02;;;;;;;5.78;2.33;;;32.00;37.80;;;;;;5040563;28;20029;-62
2022/05/28 12:05:51;;;;;;;5.53;2.40;;;32.20;37.70;;;;;;5040592;28;20029;-62
2022/05/28 12:08:25;;;;;;;8.73;2.75;;;32.30;42.00;;;;;;5040494;28;20025;-62
2022/05/28 12:11:03;;;;;;;5.60;2.22;;;32.10;36.30;;;;;;5040377;28;20565;-61
2022/05/28 12:14:03;;;;;;;6.22;2.40;;;32.10;37.80;;;;;;5040409;28;20037;-61
2022/05/28 12:16:41;;;;;;;9.98;3.00;;;32.30;35.30;;;;;;5039387;28;20030;-61
2022/05/28 12:19:13;;;;;;;8.20;2.42;;;32.40;37.40;;;;;;5040167;28;20028;-61
2022/05/28 12:21:42;;;;;;;8.32;2.88;;;32.30;36.20;;;;;;5040250;28;20025;-61
2022/05/28 12:24:14;;;;;;;9.27;2.90;;;32.30;34.80;;;;;;5040244;28;20108;-61
2022/05/28 12:29:34;;;;;;;8.15;3.03;;;32.30;38.20;;;;;;5040027;28;20037;-61
2022/05/28 12:32:19;;;;;;;7.28;2.63;;;32.30;38.40;;;;;;5039780;28;20029;-61
2022/05/28 12:35:03;;;;;;;6.53;2.35;;;32.30;34.10;;;;;;5040040;28;20022;-61
2022/05/28 12:37:34;;;;;;;;;;;32.50;39.00;;;;;;5040208;28;20036;-61
2022/05/28 12:40:24;;;;;;;9.30;2.50;;;32.60;35.60;;;;;;5039921;28;19905;-61
2022/05/28 12:42:51;;;;;;;8.80;2.60;;;32.40;34.60;;;;;;5039417;28;20056;-61
2022/05/28 12:45:38;;;;;;;8.10;2.63;;;32.60;33.50;;;;;;5039581;28;20041;-61
2022/05/28 12:48:14;;;;;;;7.53;2.47;;;32.80;36.60;;;;;;5039773;28;20033;-62
2022/05/28 12:51:03;;;;;;;5.97;2.10;;;32.90;35.60;;;;;;5039319;28;20029;-61
2022/05/28 12:53:54;;;;;;;5.82;2.20;;;33.30;37.70;;;;;;5038366;28;20036;-61
2022/05/28 12:56:35;;;;;;;5.75;2.47;;;33.40;33.10;;;;;;5039172;28;20049;-61
2022/05/28 12:59:09;;;;;;;5.45;2.38;;;33.60;32.80;;;;;;5039604;28;20017;-61
2022/05/28 13:01:37;;;;;;;7.03;2.47;;;33.70;32.10;;;;;;5039485;28;20086;-61
2022/05/28 13:04:17;;;;;;;7.90;2.50;;;33.60;32.30;;;;;;5039317;28;20018;-61
2022/05/28 13:06:52;;;;;;;5.80;2.35;;;33.20;32.30;;;;;;5039275;28;20032;-61
2022/05/28 13:09:27;;;;;;;5.95;1.85;;;33.10;33.50;;;;;;5039198;28;20032;-61
2022/05/28 13:12:23;;;;;;;12.15;2.10;;;33.00;31.80;;;;;;5038914;28;20155;-61